Time;durP1;ratioP1;P1;durP2;ratioP2;P2;SDS_P1;SDS_P2;PMS_P1;PMS_P2;Temp;Humidity;BMP_temperature;BMP_pressure;BME280_temperature;BME280_humidity;BME280_pressure;Samples;Min_cycle;Max_cycle;Signal;HPM_P1;HPM_P2
2023/07/06 00:00:17;;;;;;;13.48;7.15;;;;;;;22.05;63.85;98975.81;4391749;32;31963;-86
2023/07/06 00:02:44;;;;;;;11.52;7.25;;;;;;;21.80;64.76;98974.06;4405566;32;34679;-86
2023/07/06 00:05:12;;;;;;;12.90;6.68;;;;;;;22.21;62.96;98971.72;4405781;32;33977;-85
2023/07/06 00:07:39;;;;;;;13.57;7.22;;;;;;;22.17;63.18;98978.03;4405799;32;34007;-86
2023/07/06 00:10:07;;;;;;;12.55;7.82;;;;;;;22.09;63.57;98973.00;4405413;32;34393;-87
2023/07/06 00:12:35;;;;;;;11.20;7.62;;;;;;;21.84;64.66;98973.03;4392096;32;34315;-86
2023/07/06 00:15:03;;;;;;;13.23;7.60;;;;;;;21.57;65.69;98980.16;4405667;32;34535;-85
2023/07/06 00:17:32;;;;;;;14.13;7.62;;;;;;;21.46;66.08;98974.38;4405217;32;33586;-86
2023/07/06 00:19:59;;;;;;;11.98;7.47;;;;;;;22.04;64.11;98972.28;4402977;32;32974;-86
2023/07/06 00:22:27;;;;;;;12.27;7.20;;;;;;;22.03;63.60;98977.63;4404591;32;33967;-89
2023/07/06 00:24:57;;;;;;;11.10;7.12;;;;;;;22.00;63.49;98981.25;4405024;32;34826;-85
2023/07/06 00:27:25;;;;;;;12.13;6.15;;;;;;;21.98;63.90;98983.09;4404836;32;33885;-91
2023/07/06 00:32:39;;;;;;;12.45;6.78;;;;;;;22.06;63.42;98982.81;4403850;32;34207;-89
2023/07/06 00:35:10;;;;;;;12.10;7.10;;;;;;;22.05;63.52;98976.69;4405718;32;33799;-85
2023/07/06 00:37:38;;;;;;;10.93;6.68;;;;;;;22.09;63.31;98977.44;4404644;32;33658;-88
2023/07/06 00:40:08;;;;;;;9.35;6.12;;;;;;;21.70;64.54;98979.72;4391563;32;33585;-86
2023/07/06 00:42:36;;;;;;;12.82;7.43;;;;;;;22.01;63.54;98982.09;4378258;32;34626;-86
2023/07/06 00:45:10;;;;;;;13.20;6.78;;;;;;;22.15;63.01;98982.50;4380186;32;34047;-89
2023/07/06 00:47:49;;;;;;;13.07;7.07;;;;;;;22.27;62.59;98982.03;4404602;32;34378;-86
2023/07/06 00:50:23;;;;;;;11.27;6.68;;;;;;;21.62;64.95;98982.63;4388579;32;33276;-88
2023/07/06 00:52:59;;;;;;;10.93;6.47;;;;;;;21.90;63.90;98979.87;4390286;32;34042;-88
2023/07/06 00:55:30;;;;;;;10.07;6.30;;;;;;;22.04;63.12;98984.63;4403830;32;34141;-85
2023/07/06 00:58:03;;;;;;;9.77;5.82;;;;;;;22.40;61.47;98981.59;4404609;32;33979;-85
2023/07/06 01:00:31;;;;;;;10.00;5.53;;;;;;;21.95;63.29;98991.12;4383285;32;33396;-87
2023/07/06 01:03:01;;;;;;;12.82;7.20;;;;;;;21.60;64.20;98985.34;4405123;32;33848;-87
2023/07/06 01:05:30;;;;;;;12.00;6.62;;;;;;;21.74;63.84;98992.75;4391840;32;33824;-88
2023/07/06 01:08:07;;;;;;;9.23;5.95;;;;;;;21.68;63.78;98992.12;4391484;32;33262;-89
2023/07/06 01:10:34;;;;;;;10.85;6.43;;;;;;;21.84;63.07;98988.88;4391556;32;33127;-85
2023/07/06 01:13:02;;;;;;;10.38;5.80;;;;;;;21.42;64.19;98988.59;4391608;32;33587;-86
2023/07/06 01:15:37;;;;;;;9.60;5.70;;;;;;;21.05;65.25;98973.97;4391853;32;34885;-87
2023/07/06 01:18:20;;;;;;;10.60;5.47;;;;;;;20.92;65.86;98979.72;4391560;32;33505;-85
2023/07/06 01:20:56;;;;;;;11.20;5.78;;;;;;;21.09;65.16;98975.59;4390199;32;33844;-87
2023/07/06 01:23:40;;;;;;;11.75;5.68;;;;;;;21.54;63.38;98985.53;4390866;32;33058;-85
2023/07/06 01:26:13;;;;;;;10.02;5.30;;;;;;;21.54;62.75;98982.03;4404157;32;34989;-87
2023/07/06 01:29:03;;;;;;;18.80;6.45;;;;;;;21.44;63.16;98975.34;4390150;32;34253;-86
2023/07/06 01:31:42;;;;;;;10.20;5.68;;;;;;;21.40;62.75;98971.94;4403596;32;34236;-88
2023/07/06 01:34:28;;;;;;;10.48;5.82;;;;;;;21.41;62.71;98962.28;4390391;32;33558;-89
2023/07/06 01:37:05;;;;;;;7.97;5.03;;;;;;;21.04;63.57;98969.63;4402739;32;33726;-86
2023/07/06 01:39:33;;;;;;;8.25;4.80;;;;;;;20.89;64.33;98968.34;4384072;32;34666;-86
2023/07/06 01:42:10;;;;;;;9.18;5.05;;;;;;;20.92;63.91;98972.66;4405122;32;33152;-88
2023/07/06 01:44:40;;;;;;;8.40;4.47;;;;;;;21.21;63.01;98971.69;4391051;32;33460;-87
2023/07/06 01:47:08;;;;;;;9.23;4.97;;;;;;;20.63;64.78;98957.78;4391027;32;35090;-89
2023/07/06 01:49:36;;;;;;;10.52;5.07;;;;;;;20.73;64.45;98951.31;4403942;32;33731;-88
2023/07/06 01:52:24;;;;;;;8.68;4.57;;;;;;;20.63;65.00;98955.13;4378758;32;33234;-87
2023/07/06 01:55:00;;;;;;;10.80;5.55;;;;;;;20.50;65.30;98957.31;4389697;32;33918;-89
2023/07/06 01:57:33;;;;;;;9.88;5.47;;;;;;;20.19;66.77;98959.94;4383361;32;33261;-88
2023/07/06 02:00:22;;;;;;;10.55;5.60;;;;;;;20.23;66.61;98958.09;4368117;32;33246;-89
2023/07/06 02:02:53;;;;;;;8.07;4.70;;;;;;;20.24;66.60;98960.69;4374954;32;33369;-89
2023/07/06 02:05:22;;;;;;;10.77;5.43;;;;;;;20.51;65.82;98963.44;4374956;32;33687;-88
2023/07/06 02:07:49;;;;;;;9.70;4.75;;;;;;;20.40;66.30;98961.09;4363897;32;34817;-88
2023/07/06 02:10:18;;;;;;;8.50;5.12;;;;;;;20.21;67.02;98965.19;4366944;32;32324;-89
2023/07/06 02:12:49;;;;;;;9.50;5.18;;;;;;;20.44;66.37;98967.13;4375857;32;33028;-86
2023/07/06 02:15:20;;;;;;;11.10;4.80;;;;;;;20.44;66.11;98956.59;4374641;32;33162;-85
2023/07/06 02:17:55;;;;;;;9.05;5.07;;;;;;;20.39;66.48;98960.22;4389456;32;33798;-89
2023/07/06 02:20:23;;;;;;;8.13;5.13;;;;;;;20.43;66.34;98961.00;4374911;32;33663;-88
2023/07/06 02:22:51;;;;;;;9.10;4.65;;;;;;;20.45;66.32;98968.84;4375550;32;32706;-88
2023/07/06 02:25:21;;;;;;;8.57;4.37;;;;;;;20.61;65.83;98975.41;4388481;32;34883;-89
2023/07/06 02:27:49;;;;;;;9.85;5.03;;;;;;;20.49;66.16;98971.34;4373996;32;33099;-87
2023/07/06 02:30:16;;;;;;;7.35;4.25;;;;;;;20.56;66.07;98978.16;4387317;32;34641;-86
2023/07/06 02:32:46;;;;;;;9.05;4.93;;;;;;;20.51;65.99;98974.81;4374962;32;34312;-87
2023/07/06 02:35:13;;;;;;;7.68;4.47;;;;;;;20.80;64.72;98981.81;4388059;32;33245;-87
2023/07/06 02:37:41;;;;;;;8.23;4.22;;;;;;;20.48;66.06;98984.56;4374662;32;34125;-89
2023/07/06 02:40:10;;;;;;;8.20;4.75;;;;;;;20.40;66.28;98980.37;4364204;32;34593;-87
2023/07/06 02:42:41;;;;;;;8.55;4.65;;;;;;;20.89;64.64;98984.16;4374626;32;32623;-87
2023/07/06 02:45:10;;;;;;;9.55;4.85;;;;;;;20.73;64.96;98993.47;4374075;32;33955;-89
2023/07/06 02:47:38;;;;;;;8.57;4.32;;;;;;;20.69;65.28;98994.47;4375808;32;34838;-88
2023/07/06 02:50:11;;;;;;;7.32;3.90;;;;;;;20.53;65.78;98995.81;4390054;32;32370;-89
2023/07/06 02:52:42;;;;;;;8.30;4.05;;;;;;;20.78;65.12;98996.81;4389515;32;33440;-88
2023/07/06 02:55:10;;;;;;;7.12;4.28;;;;;;;20.51;65.87;98997.66;4377695;32;33956;-87
2023/07/06 02:57:40;;;;;;;8.20;3.90;;;;;;;20.37;66.12;98987.50;4389278;32;34880;-90
2023/07/06 03:00:14;;;;;;;8.70;4.45;;;;;;;20.68;65.35;98997.13;4375828;32;33798;-88
2023/07/06 03:02:43;;;;;;;9.40;4.55;;;;;;;20.06;67.52;98993.66;4388509;32;33596;-89
2023/07/06 03:05:11;;;;;;;8.88;3.85;;;;;;;20.19;67.32;98996.78;4362936;32;32521;-89
2023/07/06 03:07:39;;;;;;;8.18;4.10;;;;;;;20.46;66.41;98991.66;4389743;32;33924;-89
2023/07/06 03:10:08;;;;;;;9.07;4.18;;;;;;;20.46;66.14;98994.28;4376425;32;33830;-90
2023/07/06 03:12:37;;;;;;;8.23;3.87;;;;;;;20.18;67.45;99000.34;4390172;32;33586;-89
2023/07/06 03:15:06;;;;;;;7.45;3.78;;;;;;;20.33;66.48;98997.25;4374485;32;33447;-87
2023/07/06 03:17:33;;;;;;;8.95;4.05;;;;;;;20.24;66.83;99002.81;4389245;32;33702;-88
2023/07/06 03:20:03;;;;;;;8.48;4.00;;;;;;;20.70;65.19;98993.56;4388033;32;34028;-89
2023/07/06 03:22:31;;;;;;;6.37;3.50;;;;;;;20.06;67.30;99003.34;4389689;32;34150;-90
2023/07/06 03:25:19;;;;;;;6.80;3.92;;;;;;;19.97;67.78;99004.47;4381199;32;35294;-89
2023/07/06 03:27:47;;;;;;;7.60;4.10;;;;;;;20.37;66.58;99006.78;4391103;32;34029;-85
2023/07/06 03:30:18;;;;;;;7.35;3.58;;;;;;;20.92;64.71;98995.53;4375034;32;33605;-87
2023/07/06 03:32:46;;;;;;;7.12;3.40;;;;;;;20.75;64.62;98998.66;4388697;32;34217;-86
2023/07/06 03:35:14;;;;;;;8.13;3.97;;;;;;;20.74;65.16;99004.84;4376545;32;32600;-87
2023/07/06 03:37:42;;;;;;;7.32;3.12;;;;;;;20.86;64.43;99004.47;4376845;32;34780;-88
2023/07/06 03:40:11;;;;;;;7.37;3.60;;;;;;;20.65;65.18;99009.50;4390833;32;33920;-87
2023/07/06 03:42:40;;;;;;;6.72;3.58;;;;;;;20.62;64.52;99019.28;4390923;32;33352;-87
2023/07/06 03:45:08;;;;;;;6.65;3.20;;;;;;;20.90;63.48;99022.75;4376915;32;33814;-86
2023/07/06 03:47:37;;;;;;;7.90;3.72;;;;;;;20.69;64.35;99028.72;4388108;32;34220;-90
2023/07/06 03:50:09;;;;;;;6.60;3.42;;;;;;;20.77;64.05;99024.06;4387743;32;33490;-91
2023/07/06 03:52:39;;;;;;;6.03;2.95;;;;;;;20.60;64.51;99035.09;4364161;32;32186;-88
2023/07/06 03:55:13;;;;;;;7.32;3.58;;;;;;;20.98;63.46;99035.69;4350968;32;34734;-88
2023/07/06 03:57:41;;;;;;;6.00;2.90;;;;;;;20.52;64.65;99046.78;4362559;32;33676;-91
2023/07/06 04:00:29;;;;;;;8.18;3.35;;;;;;;20.70;64.21;99048.00;4369499;32;33764;-86
2023/07/06 04:02:57;;;;;;;6.62;3.40;;;;;;;20.48;65.10;99048.59;4389437;32;33495;-87
2023/07/06 04:05:32;;;;;;;6.87;3.08;;;;;;;20.28;65.22;99048.34;4382737;32;34420;-88
2023/07/06 04:08:12;;;;;;;6.62;3.42;;;;;;;20.51;64.75;99055.59;4377728;32;34166;-88
2023/07/06 04:10:40;;;;;;;6.72;3.10;;;;;;;20.46;65.42;99053.06;4376395;32;34487;-89
2023/07/06 04:13:09;;;;;;;9.80;3.87;;;;;;;20.70;64.79;99066.47;4376680;32;34267;-92
2023/07/06 04:15:40;;;;;;;10.57;3.42;;;;;;;20.21;65.52;99068.69;4376640;32;33575;-85
2023/07/06 04:18:07;;;;;;;7.32;3.45;;;;;;;20.26;65.41;99079.09;4375086;32;34095;-87
2023/07/06 04:20:35;;;;;;;8.95;3.17;;;;;;;20.49;65.29;99071.44;4376084;32;32840;-89
2023/07/06 04:23:04;;;;;;;5.50;2.90;;;;;;;20.46;64.85;99068.88;4375474;32;32766;-88
2023/07/06 04:25:33;;;;;;;8.02;3.40;;;;;;;20.36;65.33;99072.66;4375762;32;33653;-87
2023/07/06 04:28:10;;;;;;;7.05;3.05;;;;;;;20.13;65.91;99062.78;4389728;32;35168;-85
2023/07/06 04:30:45;;;;;;;6.85;3.42;;;;;;;20.75;64.05;99081.19;4376866;32;34636;-86
2023/07/06 04:33:19;;;;;;;9.48;3.42;;;;;;;20.57;64.99;99079.09;4374314;32;33683;-87
2023/07/06 04:35:51;;;;;;;6.37;2.75;;;;;;;20.30;65.15;99080.72;4390294;32;34621;-89
2023/07/06 04:38:25;;;;;;;9.18;2.62;;;;;;;20.82;63.78;99079.25;4375578;32;34271;-88
2023/07/06 04:40:52;;;;;;;11.10;3.20;;;;;;;20.89;63.40;99078.16;4389430;32;33418;-87
2023/07/06 04:43:20;;;;;;;7.18;3.10;;;;;;;21.00;62.98;99073.44;4374035;32;33880;-94
2023/07/06 04:45:48;;;;;;;7.68;2.95;;;;;;;20.81;63.63;99088.06;4361511;32;33430;-85
2023/07/06 04:48:16;;;;;;;6.10;2.90;;;;;;;20.72;63.58;99083.94;4374604;32;33435;-90
2023/07/06 04:50:44;;;;;;;5.85;2.72;;;;;;;20.64;63.77;99088.56;4391480;32;33738;-93
2023/07/06 04:53:13;;;;;;;7.90;3.22;;;;;;;20.65;64.28;99085.91;4379732;32;34255;-88
2023/07/06 04:55:41;;;;;;;7.55;2.80;;;;;;;20.82;63.30;99090.66;4404749;32;33598;-86
2023/07/06 04:58:09;;;;;;;5.95;2.58;;;;;;;20.55;64.67;99094.09;4404396;32;34171;-86
2023/07/06 05:00:39;;;;;;;7.22;3.20;;;;;;;20.82;63.60;99090.66;4404573;32;34514;-88
2023/07/06 05:03:07;;;;;;;7.55;3.10;;;;;;;20.69;63.49;99091.94;4403224;32;33288;-88
2023/07/06 05:05:40;;;;;;;7.90;3.20;;;;;;;20.55;64.60;99094.09;4403595;32;33622;-85
2023/07/06 05:08:10;;;;;;;7.85;3.33;;;;;;;20.61;64.57;99086.03;4405410;32;34987;-87
2023/07/06 05:10:38;;;;;;;7.45;3.25;;;;;;;21.05;63.15;99086.44;4405047;32;33944;-85
2023/07/06 05:13:06;;;;;;;8.07;3.00;;;;;;;20.75;64.63;99093.50;4405005;32;33022;-86
2023/07/06 05:15:36;;;;;;;7.30;2.70;;;;;;;20.82;65.03;99097.69;4405250;32;34722;-84
2023/07/06 05:18:06;;;;;;;6.90;2.92;;;;;;;20.78;65.16;99102.19;4377757;32;34599;-86
2023/07/06 05:20:33;;;;;;;6.50;3.80;;;;;;;21.00;64.32;99093.66;4403161;32;34724;-87
2023/07/06 05:23:03;;;;;;;7.35;3.03;;;;;;;21.03;64.48;99094.41;4405065;32;32677;-88
2023/07/06 05:25:31;;;;;;;8.82;3.58;;;;;;;21.23;64.71;99092.94;4391068;32;33773;-85
2023/07/06 05:27:58;;;;;;;9.32;3.83;;;;;;;21.03;66.34;99106.75;4402881;32;33823;-87
2023/07/06 05:30:27;;;;;;;10.20;3.47;;;;;;;21.28;66.41;99109.44;4403570;32;33947;-84
2023/07/06 05:32:55;;;;;;;8.93;3.72;;;;;;;20.84;68.22;99123.09;4382339;32;33462;-89
2023/07/06 05:35:23;;;;;;;10.00;4.20;;;;;;;20.88;69.26;99123.87;4390830;32;34276;-83
2023/07/06 05:37:51;;;;;;;10.13;4.18;;;;;;;20.51;70.52;99126.72;4390458;32;34209;-82
2023/07/06 05:40:19;;;;;;;9.50;3.92;;;;;;;20.72;69.73;99136.66;4404695;32;35167;-91
2023/07/06 05:42:47;;;;;;;10.52;4.15;;;;;;;20.55;70.26;99145.00;4403863;32;34203;-92
2023/07/06 05:45:14;;;;;;;9.32;4.05;;;;;;;20.84;69.68;99140.69;4376110;32;31765;-82
2023/07/06 05:47:42;;;;;;;11.57;4.10;;;;;;;21.00;69.55;99136.69;4404766;32;34140;-91
2023/07/06 05:50:10;;;;;;;9.95;4.15;;;;;;;21.08;69.42;99120.62;4402505;32;34762;-88
2023/07/06 05:52:41;;;;;;;11.18;3.72;;;;;;;21.26;69.19;99112.16;4390184;32;34189;-82
2023/07/06 05:55:09;;;;;;;11.50;4.35;;;;;;;20.63;70.45;99106.12;4404848;32;34624;-83
2023/07/06 05:57:37;;;;;;;9.52;4.47;;;;;;;20.32;71.91;99092.97;4403558;32;33436;-84
2023/07/06 06:00:09;;;;;;;10.95;4.55;;;;;;;19.83;75.21;99086.37;4403718;32;34041;-84
2023/07/06 06:02:39;;;;;;;14.20;5.12;;;;;;;20.35;73.82;99090.25;4391601;32;33491;-86
2023/07/06 06:05:07;;;;;;;10.68;4.35;;;;;;;20.45;74.21;99100.50;4390950;32;34754;-84
2023/07/06 06:07:35;;;;;;;9.13;4.70;;;;;;;20.47;73.70;99104.84;4404343;32;34033;-83
2023/07/06 06:10:03;;;;;;;9.07;4.22;;;;;;;20.32;73.48;99119.28;4404377;32;34665;-83
2023/07/06 06:12:33;;;;;;;8.25;4.03;;;;;;;20.68;72.32;99123.56;4404443;32;33915;-83
2023/07/06 06:15:01;;;;;;;7.90;4.62;;;;;;;20.68;72.76;99123.56;4390487;32;34724;-83
2023/07/06 06:17:30;;;;;;;8.60;3.95;;;;;;;20.81;72.98;99120.56;4403171;32;34593;-83
2023/07/06 06:19:58;;;;;;;12.52;4.78;;;;;;;20.84;72.18;99124.87;4403209;32;33444;-83
2023/07/06 06:22:25;;;;;;;10.02;4.47;;;;;;;20.68;73.20;99124.44;4404706;32;32976;-83
2023/07/06 06:24:53;;;;;;;9.15;3.83;;;;;;;20.74;72.49;99124.28;4406292;32;33640;-83
2023/07/06 06:27:22;;;;;;;12.90;4.18;;;;;;;20.80;73.00;99118.84;4406006;32;33818;-86
2023/07/06 06:29:49;;;;;;;10.48;4.20;;;;;;;21.09;72.22;99114.44;4392603;32;34686;-82
2023/07/06 06:32:17;;;;;;;8.70;4.28;;;;;;;21.11;70.99;99124.03;4392963;32;33221;-85
2023/07/06 06:34:45;;;;;;;7.50;4.25;;;;;;;21.32;71.10;99114.56;4392846;32;34065;-84
2023/07/06 06:37:13;;;;;;;10.95;4.37;;;;;;;21.24;70.29;99127.16;4406419;32;33856;-84
2023/07/06 06:39:40;;;;;;;7.57;3.95;;;;;;;21.18;70.58;99123.84;4406221;32;33526;-83
2023/07/06 06:42:09;;;;;;;7.12;3.62;;;;;;;21.43;70.48;99132.72;4392873;32;33545;-82
2023/07/06 06:44:40;;;;;;;7.03;4.03;;;;;;;21.97;68.57;99133.59;4392511;32;34245;-82
2023/07/06 06:47:08;;;;;;;9.77;4.07;;;;;;;21.90;70.78;99124.19;4380452;32;33856;-87
2023/07/06 06:49:35;;;;;;;7.18;3.97;;;;;;;22.12;70.65;99130.41;4383371;32;33573;-85
2023/07/06 06:52:04;;;;;;;7.47;3.72;;;;;;;22.22;68.93;99131.87;4387387;32;33822;-88
2023/07/06 06:54:33;;;;;;;8.57;3.60;;;;;;;22.54;67.54;99122.81;4391525;32;34615;-83
2023/07/06 06:57:02;;;;;;;7.37;3.50;;;;;;;21.70;69.94;99133.59;4378015;32;34044;-82
2023/07/06 06:59:32;;;;;;;9.73;3.92;;;;;;;21.87;68.42;99139.19;4365338;32;34098;-81
2023/07/06 07:02:02;;;;;;;7.50;3.83;;;;;;;22.15;69.67;99135.62;4400919;32;33089;-82
2023/07/06 07:04:31;;;;;;;8.50;3.97;;;;;;;22.16;69.81;99145.31;4406148;32;33043;-88
2023/07/06 07:07:03;;;;;;;8.43;4.03;;;;;;;21.80;68.22;99145.59;4392673;32;33965;-83
2023/07/06 07:09:32;;;;;;;8.93;3.90;;;;;;;21.79;71.12;99149.16;4406480;32;34331;-86
2023/07/06 07:12:00;;;;;;;7.68;3.97;;;;;;;21.65;69.80;99146.09;4405976;32;33148;-83
2023/07/06 07:14:29;;;;;;;6.40;3.80;;;;;;;21.86;68.87;99134.00;4391961;32;33777;-84
2023/07/06 07:16:57;;;;;;;9.52;4.03;;;;;;;22.02;67.78;99132.53;4391811;32;34165;-85
2023/07/06 07:19:28;;;;;;;12.25;4.47;;;;;;;22.12;67.74;99133.06;4378621;32;34621;-85
2023/07/06 07:22:00;;;;;;;10.82;4.18;;;;;;;21.90;67.38;99140.03;4405895;32;33273;-84
2023/07/06 07:24:32;;;;;;;8.45;4.10;;;;;;;22.01;65.75;99143.12;4405521;32;34666;-88
2023/07/06 07:27:00;;;;;;;8.77;3.92;;;;;;;22.05;67.78;99140.34;4392505;32;34179;-85
2023/07/06 07:29:28;;;;;;;8.98;4.03;;;;;;;21.90;67.54;99140.88;4406282;32;32891;-86
2023/07/06 07:31:56;;;;;;;9.02;4.03;;;;;;;21.86;69.17;99137.47;4392057;32;33301;-86
2023/07/06 07:34:27;;;;;;;10.45;4.15;;;;;;;21.84;67.77;99133.16;4405830;32;33669;-87
2023/07/06 07:36:54;;;;;;;8.68;4.18;;;;;;;21.93;68.24;99140.75;4406228;32;34022;-86
2023/07/06 07:39:23;;;;;;;9.27;4.28;;;;;;;22.18;68.68;99139.97;4404921;32;32608;-85
2023/07/06 07:41:52;;;;;;;9.32;4.43;;;;;;;21.98;68.80;99135.34;4405124;32;34073;-87
2023/07/06 07:44:21;;;;;;;8.57;4.10;;;;;;;22.31;66.39;99136.84;4392672;32;33680;-85
2023/07/06 07:46:49;;;;;;;9.93;3.67;;;;;;;22.06;66.15;99134.16;4406073;32;34039;-83
2023/07/06 07:49:17;;;;;;;9.88;3.47;;;;;;;22.27;66.22;99137.84;4405874;32;33864;-87
2023/07/06 07:51:46;;;;;;;9.95;4.30;;;;;;;21.78;67.89;99130.72;4402997;32;34304;-87
2023/07/06 07:54:13;;;;;;;10.20;4.40;;;;;;;21.60;69.76;99140.97;4405383;32;33657;-85
2023/07/06 07:56:42;;;;;;;8.65;4.03;;;;;;;21.89;67.85;99135.62;4405463;32;35055;-83
2023/07/06 07:59:10;;;;;;;10.65;4.82;;;;;;;21.68;67.08;99126.69;4405319;32;34050;-86
2023/07/06 08:01:38;;;;;;;9.82;3.90;;;;;;;21.91;68.16;99121.47;4405413;32;33718;-85
2023/07/06 08:04:06;;;;;;;7.85;3.95;;;;;;;22.37;65.53;99126.97;4405959;32;34777;-87
2023/07/06 08:06:34;;;;;;;8.88;4.10;;;;;;;22.62;65.97;99125.16;4405763;32;35004;-86
2023/07/06 08:09:03;;;;;;;8.45;4.30;;;;;;;22.51;67.70;99122.06;4392024;32;34971;-87
2023/07/06 08:11:31;;;;;;;9.82;4.30;;;;;;;22.73;66.78;99120.34;4392190;32;34313;-86
2023/07/06 08:13:59;;;;;;;10.55;3.72;;;;;;;22.82;66.04;99129.69;4392045;32;34004;-86
2023/07/06 08:16:28;;;;;;;8.27;4.22;;;;;;;23.33;61.57;99119.81;4405913;32;33669;-88
2023/07/06 08:18:56;;;;;;;8.98;3.78;;;;;;;22.97;65.23;99123.00;4405754;32;34062;-87
2023/07/06 08:21:44;;;;;;;8.20;3.40;;;;;;;23.15;65.04;99121.44;4394383;32;33496;-87
2023/07/06 08:24:32;;;;;;;8.00;3.97;;;;;;;23.26;64.73;99125.37;4405520;32;33750;-89
2023/07/06 08:26:59;;;;;;;8.57;3.42;;;;;;;23.39;66.04;99127.53;4391876;32;33174;-89
2023/07/06 08:29:27;;;;;;;7.50;3.35;;;;;;;23.31;63.74;99123.41;4404069;32;33843;-85
2023/07/06 08:31:56;;;;;;;9.68;3.87;;;;;;;23.14;64.71;99138.19;4381522;32;33157;-83
2023/07/06 08:34:26;;;;;;;8.50;4.15;;;;;;;22.92;63.74;99143.44;4403988;32;34470;-86
2023/07/06 08:36:54;;;;;;;8.85;4.22;;;;;;;23.03;62.84;99135.97;4402161;32;34117;-90
2023/07/06 08:39:25;;;;;;;8.90;3.75;;;;;;;23.17;62.80;99144.22;4395866;32;34287;-88
2023/07/06 08:41:53;;;;;;;9.20;3.60;;;;;;;23.58;61.18;99139.09;4405795;32;33109;-92
2023/07/06 08:44:24;;;;;;;6.82;3.28;;;;;;;23.02;60.96;99139.53;4405680;32;33831;-88
2023/07/06 08:46:55;;;;;;;10.25;4.10;;;;;;;23.34;61.92;99134.78;4404861;32;34066;-87
2023/07/06 08:49:32;;;;;;;8.93;4.30;;;;;;;23.64;61.42;99132.66;4390539;32;34453;-89
2023/07/06 08:52:05;;;;;;;9.00;4.03;;;;;;;23.73;59.25;99137.63;4376531;32;32879;-88
2023/07/06 08:54:39;;;;;;;9.32;4.07;;;;;;;24.02;58.91;99136.41;4390512;32;33977;-89
2023/07/06 08:57:15;;;;;;;8.95;4.30;;;;;;;24.13;58.61;99126.22;4378073;32;33845;-86
2023/07/06 08:59:45;;;;;;;9.43;3.60;;;;;;;24.23;58.34;99124.00;4392091;32;34256;-86
2023/07/06 09:02:17;;;;;;;9.88;4.15;;;;;;;24.43;58.07;99133.75;4405472;32;34676;-87
2023/07/06 09:04:50;;;;;;;12.65;6.18;;;;;;;24.24;60.49;99123.97;4391749;32;34434;-86
2023/07/06 09:07:24;;;;;;;9.60;3.78;;;;;;;24.34;57.16;99119.09;4391976;32;34769;-86
2023/07/06 09:09:54;;;;;;;7.43;3.65;;;;;;;24.33;59.53;99125.34;4391966;32;33395;-86
2023/07/06 09:12:36;;;;;;;7.93;3.58;;;;;;;24.54;58.18;99123.53;4392943;32;33623;-88
2023/07/06 09:15:04;;;;;;;8.77;3.97;;;;;;;24.72;56.91;99133.31;4392147;32;33491;-88
2023/07/06 09:17:32;;;;;;;9.82;3.80;;;;;;;24.65;58.45;99129.22;4391459;32;34209;-86
2023/07/06 09:20:03;;;;;;;10.15;3.87;;;;;;;24.98;56.93;99126.81;4405392;32;33830;-86
2023/07/06 09:22:30;;;;;;;7.53;3.50;;;;;;;24.95;58.31;99137.56;4391285;32;34065;-87
2023/07/06 09:25:01;;;;;;;7.68;4.30;;;;;;;25.11;56.56;99136.88;4404891;32;34720;-86
2023/07/06 09:27:29;;;;;;;8.10;4.00;;;;;;;25.48;55.38;99128.88;4404909;32;34611;-87
2023/07/06 09:30:05;;;;;;;7.75;3.40;;;;;;;25.51;56.41;99130.53;4391513;32;34378;-87
2023/07/06 09:32:34;;;;;;;6.80;3.42;;;;;;;25.64;54.40;99126.31;4391610;32;33394;-87
2023/07/06 09:35:09;;;;;;;8.88;3.80;;;;;;;25.79;56.43;99126.53;4404730;32;34130;-86
2023/07/06 09:37:45;;;;;;;6.80;2.80;;;;;;;25.73;54.57;99135.66;4391486;32;34938;-91
2023/07/06 09:40:14;;;;;;;6.87;3.65;;;;;;;25.86;55.81;99135.91;4379028;32;34479;-88
2023/07/06 09:43:02;;;;;;;7.30;3.42;;;;;;;25.66;54.68;99134.22;4393761;32;33059;-90
2023/07/06 09:45:31;;;;;;;8.77;3.58;;;;;;;26.13;52.05;99139.81;4389917;32;34825;-92
2023/07/06 09:48:37;;;;;;;9.68;3.97;;;;;;;25.84;53.96;99143.12;4404734;32;35045;-92
2023/07/06 09:51:08;;;;;;;10.38;3.50;;;;;;;25.94;54.31;99142.53;4404151;32;33966;-87
2023/07/06 09:53:48;;;;;;;10.10;4.12;;;;;;;26.01;53.01;99131.63;4403891;32;34539;-85
2023/07/06 09:56:16;;;;;;;11.45;3.62;;;;;;;25.97;53.53;99133.56;4387591;32;33653;-86
2023/07/06 09:58:46;;;;;;;9.48;3.67;;;;;;;25.39;55.76;99131.13;4389178;32;35296;-86
2023/07/06 10:01:35;;;;;;;8.63;4.10;;;;;;;25.56;55.14;99138.25;4390966;32;33536;-89
2023/07/06 10:04:21;;;;;;;10.18;3.65;;;;;;;25.77;53.33;99137.22;4393430;32;33577;-86
2023/07/06 10:07:01;;;;;;;6.95;3.47;;;;;;;26.12;53.58;99132.78;4406447;32;33680;-90
2023/07/06 10:09:34;;;;;;;13.15;4.00;;;;;;;25.83;53.28;99133.41;4392251;32;33496;-84
2023/07/06 10:12:17;;;;;;;8.15;3.47;;;;;;;25.80;52.25;99138.84;4379946;32;34890;-86
2023/07/06 10:14:49;;;;;;;7.22;3.50;;;;;;;26.03;52.47;99132.41;4392422;32;33627;-88
2023/07/06 10:17:42;;;;;;;12.10;4.00;;;;;;;26.30;53.04;99130.97;4391968;32;33254;-86
2023/07/06 10:20:17;;;;;;;13.05;4.12;;;;;;;26.74;50.48;99132.25;4392042;32;33996;-89
2023/07/06 10:23:04;;;;;;;11.98;3.50;;;;;;;26.42;50.70;99130.34;4405864;32;34639;-87
2023/07/06 10:25:35;;;;;;;8.55;3.17;;;;;;;26.17;53.09;99125.44;4405619;32;33185;-92
2023/07/06 10:28:10;;;;;;;11.50;4.35;;;;;;;26.64;52.22;99124.78;4366903;32;34214;-87
2023/07/06 10:30:45;;;;;;;6.82;3.03;;;;;;;26.93;50.46;99120.53;4392265;32;34252;-86
2023/07/06 10:33:37;;;;;;;9.75;3.62;;;;;;;26.92;44.99;99116.13;4391904;32;34658;-89
2023/07/06 10:36:10;;;;;;;8.40;3.60;;;;;;;26.82;46.83;99111.41;4392132;32;33314;-86
2023/07/06 10:38:37;;;;;;;6.95;3.37;;;;;;;27.22;50.26;99111.91;4392128;32;33637;-86
2023/07/06 10:41:11;;;;;;;8.98;3.95;;;;;;;27.25;46.55;99099.28;4405642;32;33792;-87
2023/07/06 10:43:40;;;;;;;12.43;4.00;;;;;;;26.88;48.74;99119.06;4405704;32;33867;-91
2023/07/06 10:46:31;;;;;;;8.43;3.00;;;;;;;26.77;49.52;99124.09;4391991;32;33578;-88
2023/07/06 10:49:17;;;;;;;6.75;3.17;;;;;;;26.79;49.53;99120.44;4392201;32;34891;-86
2023/07/06 10:51:53;;;;;;;5.97;2.65;;;;;;;26.67;49.36;99123.75;4386803;32;172297;-91
2023/07/06 10:54:20;;;;;;;8.90;3.28;;;;;;;26.71;47.90;99130.63;4392442;32;34701;-86
2023/07/06 10:57:01;;;;;;;7.85;3.20;;;;;;;26.73;48.34;99128.72;4406440;32;33412;-85
2023/07/06 10:59:41;;;;;;;9.07;3.67;;;;;;;26.86;50.42;99144.91;4392124;32;33748;-87
2023/07/06 11:02:32;;;;;;;6.65;2.97;;;;;;;27.28;48.01;99124.87;4392478;32;34169;-89
2023/07/06 11:05:15;;;;;;;7.80;3.10;;;;;;;27.02;46.35;99134.28;4399439;32;33663;-90
2023/07/06 11:07:45;;;;;;;8.32;3.40;;;;;;;27.15;48.47;99130.84;4405835;32;33047;-91
2023/07/06 11:10:13;;;;;;;8.68;3.25;;;;;;;27.58;48.63;99123.13;4385857;32;34718;-86
2023/07/06 11:12:54;;;;;;;6.93;2.65;;;;;;;27.46;46.73;99123.78;4406220;32;34315;-82
2023/07/06 11:15:45;;;;;;;8.73;2.65;;;;;;;27.42;46.12;99114.28;4392767;32;33614;-84
2023/07/06 11:18:32;;;;;;;10.27;3.33;;;;;;;27.20;44.53;99119.09;4390390;32;33744;-87
2023/07/06 11:21:08;;;;;;;7.20;3.40;;;;;;;27.19;46.00;99125.37;4391373;32;34754;-87
2023/07/06 11:24:06;;;;;;;5.75;2.95;;;;;;;27.21;46.33;99107.53;4377317;32;33830;-90
2023/07/06 11:27:04;;;;;;;7.30;3.50;;;;;;;27.52;49.14;99118.13;4377423;32;33421;-86
2023/07/06 11:29:33;;;;;;;5.82;2.62;;;;;;;27.38;43.42;99102.94;4395062;32;33373;-87
2023/07/06 11:32:19;;;;;;;6.82;3.15;;;;;;;27.84;43.83;99097.66;4391610;32;33588;-89
2023/07/06 11:35:21;;;;;;;7.03;2.75;;;;;;;27.92;47.20;99105.19;4402761;32;34781;-87
2023/07/06 11:38:13;;;;;;;6.93;2.90;;;;;;;27.75;44.46;99105.31;4406088;32;34811;-84
2023/07/06 11:41:12;;;;;;;7.10;3.20;;;;;;;27.98;44.14;99103.97;4392406;32;33520;-85
2023/07/06 11:43:59;;;;;;;8.68;3.30;;;;;;;28.07;43.52;99111.38;4406090;32;33819;-89
2023/07/06 11:46:42;;;;;;;7.85;2.83;;;;;;;28.34;42.89;99115.06;4367273;32;32366;-87
2023/07/06 11:49:43;;;;;;;6.25;2.78;;;;;;;28.21;41.80;99113.22;4392275;32;33641;-87
2023/07/06 11:52:25;;;;;;;7.65;2.60;;;;;;;28.06;39.35;99101.69;4405791;32;32338;-87
2023/07/06 11:55:05;;;;;;;7.00;3.10;;;;;;;28.42;40.05;99100.44;4392076;32;34829;-86
2023/07/06 11:57:44;;;;;;;5.57;2.50;;;;;;;27.87;38.42;99101.91;4393437;32;34759;-84